Time;durP1;ratioP1;P1;durP2;ratioP2;P2;SDS_P1;SDS_P2;PMS_P1;PMS_P2;Temp;Humidity;BMP_temperature;BMP_pressure;BME280_temperature;BME280_humidity;BME280_pressure;Samples;Min_cycle;Max_cycle;Signal;HPM_P1;HPM_P2
2022/05/29 00:02:09;;;;;;;0.13;0.13;;;13.20;86.70;;;;;;4975952;28;20097;-75
2022/05/29 00:04:39;;;;;;;0.00;0.00;;;13.20;87.00;;;;;;4976595;28;20026;-74
2022/05/29 00:07:06;;;;;;;0.00;0.00;;;13.10;87.60;;;;;;4976273;28;20026;-75
2022/05/29 00:09:47;;;;;;;0.10;0.10;;;13.00;88.00;;;;;;4975105;28;20442;-75
2022/05/29 00:12:13;;;;;;;0.00;0.00;;;13.00;88.50;;;;;;4993126;28;20034;-74
2022/05/29 00:14:41;;;;;;;0.43;0.43;;;12.90;88.90;;;;;;4992949;28;20042;-75
2022/05/29 00:17:08;;;;;;;1.52;0.80;;;12.90;89.10;;;;;;4975759;28;20030;-75
2022/05/29 00:19:35;;;;;;;0.00;0.00;;;12.90;89.80;;;;;;4992468;28;20422;-74
2022/05/29 00:22:03;;;;;;;0.00;0.00;;;12.80;89.90;;;;;;4975504;28;20034;-74
2022/05/29 00:24:29;;;;;;;0.20;0.20;;;12.70;90.20;;;;;;4976037;28;20034;-75
2022/05/29 00:26:55;;;;;;;0.85;0.63;;;12.60;90.50;;;;;;4975752;28;20402;-74
2022/05/29 00:29:21;;;;;;;0.00;0.00;;;12.60;90.60;;;;;;4992236;28;20105;-74
2022/05/29 00:31:47;;;;;;;0.05;0.05;;;12.60;90.70;;;;;;4992699;28;20038;-74
2022/05/29 00:34:13;;;;;;;0.00;0.00;;;12.60;90.90;;;;;;4992881;28;20034;-74
2022/05/29 00:36:43;;;;;;;0.00;0.00;;;12.60;90.90;;;;;;4975337;28;20037;-74
2022/05/29 00:39:14;;;;;;;0.00;0.00;;;12.50;91.10;;;;;;4974974;28;20121;-74
2022/05/29 00:41:41;;;;;;;0.10;0.10;;;12.40;91.40;;;;;;4992599;28;20038;-74
2022/05/29 00:44:25;;;;;;;0.00;0.00;;;12.30;91.50;;;;;;4959393;28;20037;-74
2022/05/29 00:46:55;;;;;;;0.00;0.00;;;12.30;91.80;;;;;;4992042;28;20114;-74
2022/05/29 00:49:28;;;;;;;1.60;0.73;;;12.20;92.10;;;;;;4975041;28;20029;-74
2022/05/29 00:52:06;;;;;;;0.00;0.00;;;12.30;92.10;;;;;;4992453;28;20149;-75
2022/05/29 00:54:53;;;;;;;0.00;0.00;;;12.20;92.30;;;;;;4975851;28;20066;-75
2022/05/29 00:57:39;;;;;;;0.00;0.00;;;12.20;92.40;;;;;;4977312;28;20034;-74
2022/05/29 01:00:27;;;;;;;1.48;0.95;;;12.20;92.70;;;;;;4975718;28;20022;-74
2022/05/29 01:02:57;;;;;;;0.00;0.00;;;12.10;92.80;;;;;;4974727;28;20498;-74
2022/05/29 01:05:27;;;;;;;0.00;0.00;;;12.20;92.90;;;;;;4986416;28;20084;-74
2022/05/29 01:08:00;;;;;;;0.05;0.05;;;12.10;93.10;;;;;;4959600;28;20030;-74
2022/05/29 01:10:48;;;;;;;0.00;0.00;;;12.10;93.20;;;;;;4984865;28;20081;-74
2022/05/29 01:13:59;;;;;;;0.10;0.10;;;12.10;93.30;;;;;;4963061;28;20034;-74
2022/05/29 01:16:44;;;;;;;0.65;0.38;;;12.10;93.50;;;;;;4991081;28;20359;-75
2022/05/29 01:19:38;;;;;;;0.00;0.00;;;12.10;93.60;;;;;;4991398;28;20030;-74
2022/05/29 01:22:16;;;;;;;0.00;0.00;;;12.10;93.70;;;;;;4991367;28;20490;-75
2022/05/29 01:25:24;;;;;;;0.00;0.00;;;12.10;93.70;;;;;;4975505;28;20038;-75
2022/05/29 01:28:08;;;;;;;0.00;0.00;;;12.10;94.00;;;;;;4955675;28;20391;-74
2022/05/29 01:31:02;;;;;;;0.00;0.00;;;12.00;94.20;;;;;;4971868;28;20117;-75
2022/05/29 01:33:57;;;;;;;0.17;0.17;;;12.00;94.40;;;;;;4936552;28;20089;-74
2022/05/29 01:36:42;;;;;;;0.28;0.28;;;11.90;94.60;;;;;;4956077;28;20046;-74
2022/05/29 01:39:35;;;;;;;0.00;0.00;;;11.80;94.80;;;;;;4971754;28;20034;-74
2022/05/29 01:42:05;;;;;;;0.00;0.00;;;11.90;95.00;;;;;;4989144;28;20065;-74
2022/05/29 01:44:51;;;;;;;0.00;0.00;;;11.80;95.20;;;;;;4974225;28;20172;-74
2022/05/29 01:47:30;;;;;;;0.10;0.10;;;11.80;95.40;;;;;;4991714;28;20398;-74
2022/05/29 01:50:05;;;;;;;0.00;0.00;;;11.70;95.80;;;;;;4974243;28;20036;-74
2022/05/29 01:52:40;;;;;;;0.00;0.00;;;11.70;95.80;;;;;;4974356;28;20074;-74
2022/05/29 01:55:34;;;;;;;0.00;0.00;;;11.70;96.00;;;;;;4974610;28;20033;-74
2022/05/29 01:58:08;;;;;;;0.10;0.10;;;11.70;96.20;;;;;;4984372;28;20050;-74
2022/05/29 02:00:34;;;;;;;0.65;0.65;;;11.70;96.40;;;;;;4974199;28;20035;-75
2022/05/29 02:03:19;;;;;;;0.03;0.03;;;11.50;96.70;;;;;;4973749;28;20606;-74
2022/05/29 02:05:54;;;;;;;0.00;0.00;;;11.50;97.00;;;;;;4974888;28;20044;-74
2022/05/29 02:08:34;;;;;;;0.00;0.00;;;11.50;97.40;;;;;;4974163;28;20026;-74
2022/05/29 02:11:33;;;;;;;0.00;0.00;;;11.40;97.60;;;;;;4991356;28;20069;-74
2022/05/29 02:14:13;;;;;;;0.05;0.05;;;11.40;97.80;;;;;;4940900;28;20038;-74
2022/05/29 02:16:53;;;;;;;0.55;0.55;;;11.50;97.90;;;;;;4955574;28;20034;-74
2022/05/29 02:19:56;;;;;;;0.63;0.63;;;11.50;97.90;;;;;;4954509;28;20030;-74
2022/05/29 02:22:31;;;;;;;0.03;0.03;;;11.50;98.20;;;;;;4957547;28;20047;-74
2022/05/29 02:25:14;;;;;;;5.60;0.95;;;11.50;98.10;;;;;;4971650;28;20027;-75
2022/05/29 02:27:45;;;;;;;0.20;0.20;;;11.50;98.30;;;;;;4938976;28;20042;-74
2022/05/29 02:30:12;;;;;;;0.00;0.00;;;11.40;98.70;;;;;;4971220;28;20058;-74
2022/05/29 02:33:12;;;;;;;0.10;0.10;;;11.40;98.70;;;;;;4954390;28;20035;-74
2022/05/29 02:35:55;;;;;;;0.17;0.17;;;11.30;99.30;;;;;;4971560;28;20526;-74
2022/05/29 02:38:42;;;;;;;0.20;0.20;;;11.30;99.40;;;;;;4971291;28;20031;-74
2022/05/29 02:41:23;;;;;;;0.00;0.00;;;11.40;99.70;;;;;;4955345;28;20459;-74
2022/05/29 02:44:21;;;;;;;0.00;0.00;;;11.50;99.10;;;;;;4954781;28;20039;-74
2022/05/29 02:47:05;;;;;;;0.28;0.28;;;11.50;99.50;;;;;;4954961;28;20035;-74
2022/05/29 02:49:42;;;;;;;0.00;0.00;;;11.60;99.30;;;;;;4954912;28;20035;-75
2022/05/29 02:52:15;;;;;;;0.00;0.00;;;11.50;99.40;;;;;;4954510;28;20030;-74
2022/05/29 02:54:41;;;;;;;0.00;0.00;;;11.50;99.50;;;;;;4954626;28;20031;-74
2022/05/29 02:57:08;;;;;;;0.00;0.00;;;11.50;99.90;;;;;;4971308;28;20126;-74
2022/05/29 02:59:37;;;;;;;0.00;0.00;;;11.60;99.70;;;;;;4953535;28;20034;-74
2022/05/29 03:02:33;;;;;;;0.00;0.00;;;11.50;99.60;;;;;;4953900;28;20035;-73
2022/05/29 03:05:16;;;;;;;0.10;0.10;;;11.50;99.90;;;;;;4954066;28;20534;-73
2022/05/29 03:08:25;;;;;;;0.00;0.00;;;11.50;99.90;;;;;;4953973;28;20130;-74
2022/05/29 03:11:36;;;;;;;0.00;0.00;;;11.50;99.90;;;;;;4961014;28;20102;-74
2022/05/29 03:14:11;;;;;;;0.00;0.00;;;11.50;99.90;;;;;;4974976;28;20514;-74
2022/05/29 03:17:09;;;;;;;0.13;0.13;;;11.50;99.90;;;;;;4977313;28;20034;-74
2022/05/29 03:20:07;;;;;;;0.00;0.00;;;11.60;99.90;;;;;;4993849;28;20038;-74
2022/05/29 03:23:03;;;;;;;0.10;0.10;;;11.50;99.90;;;;;;4976415;28;20479;-74
2022/05/29 03:25:41;;;;;;;0.00;0.00;;;11.60;99.90;;;;;;4978683;28;20133;-74
2022/05/29 03:28:35;;;;;;;0.00;0.00;;;11.70;99.90;;;;;;4977721;28;20019;-74
2022/05/29 03:31:09;;;;;;;0.10;0.10;;;11.50;99.90;;;;;;4979648;28;20029;-74
2022/05/29 03:33:38;;;;;;;0.00;0.00;;;11.50;99.90;;;;;;4977496;28;20037;-74
2022/05/29 03:36:11;;;;;;;0.10;0.10;;;11.50;99.90;;;;;;4994269;28;20548;-74
2022/05/29 03:38:36;;;;;;;0.00;0.00;;;11.40;99.90;;;;;;4976357;28;20085;-74
2022/05/29 03:41:39;;;;;;;0.00;0.00;;;11.40;99.90;;;;;;4976620;28;20483;-74
2022/05/29 03:44:09;;;;;;;0.03;0.03;;;11.40;99.90;;;;;;4977763;28;20045;-74
2022/05/29 03:46:35;;;;;;;1.40;0.88;;;11.40;99.90;;;;;;4993766;28;20041;-74
2022/05/29 03:49:00;;;;;;;0.00;0.00;;;11.40;99.90;;;;;;4993315;28;20034;-74
2022/05/29 03:51:26;;;;;;;0.10;0.10;;;11.30;99.90;;;;;;4993669;28;20034;-73
2022/05/29 03:53:52;;;;;;;0.00;0.00;;;11.30;99.90;;;;;;4994007;28;20034;-74
2022/05/29 03:56:18;;;;;;;0.00;0.00;;;11.30;99.90;;;;;;4976157;28;20069;-74
2022/05/29 03:58:43;;;;;;;0.00;0.00;;;11.30;99.90;;;;;;4992824;28;20026;-73
2022/05/29 04:01:09;;;;;;;0.05;0.05;;;11.30;99.90;;;;;;4993682;28;20509;-74
2022/05/29 04:03:35;;;;;;;0.20;0.20;;;11.30;99.90;;;;;;4993524;28;20578;-73
2022/05/29 04:06:01;;;;;;;1.70;1.13;;;11.40;99.90;;;;;;4993299;28;20030;-74
2022/05/29 04:14:00;;;;;;;0.32;0.32;;;11.20;99.90;;;;;;4992828;28;20027;-74
2022/05/29 04:16:26;;;;;;;0.10;0.10;;;11.20;99.90;;;;;;4974170;28;20050;-74
2022/05/29 04:18:51;;;;;;;7.03;0.47;;;11.20;99.90;;;;;;4973004;28;20484;-74
2022/05/29 04:21:17;;;;;;;0.30;0.30;;;11.20;99.90;;;;;;4972618;28;20038;-75
2022/05/29 04:23:43;;;;;;;0.00;0.00;;;11.20;99.90;;;;;;4980319;23;20494;-71
2022/05/29 04:26:14;;;;;;;0.15;0.15;;;11.10;99.90;;;;;;4955575;28;20042;-71
2022/05/29 04:28:41;;;;;;;0.00;0.00;;;11.10;99.90;;;;;;4953698;29;20034;-71
2022/05/29 04:31:06;;;;;;;0.25;0.25;;;11.10;99.90;;;;;;4937058;29;20059;-71
2022/05/29 04:33:32;;;;;;;0.00;0.00;;;11.00;99.90;;;;;;4954078;28;20555;-71
2022/05/29 04:35:58;;;;;;;0.15;0.15;;;10.80;99.90;;;;;;4953013;29;20035;-71
2022/05/29 04:38:27;;;;;;;3.40;1.23;;;10.80;99.90;;;;;;4952378;29;20396;-71
2022/05/29 04:40:54;;;;;;;0.00;0.00;;;10.80;99.90;;;;;;4952999;29;20090;-71
2022/05/29 04:43:21;;;;;;;0.00;0.00;;;10.70;99.90;;;;;;4952767;28;20039;-71
2022/05/29 04:45:51;;;;;;;0.25;0.25;;;10.60;99.90;;;;;;4954173;29;20113;-70
2022/05/29 04:48:16;;;;;;;0.77;0.77;;;10.50;99.90;;;;;;4952540;29;20046;-71
2022/05/29 04:50:43;;;;;;;0.00;0.00;;;10.30;99.90;;;;;;4953119;29;20027;-70
2022/05/29 04:53:11;;;;;;;0.32;0.30;;;10.20;99.90;;;;;;4953761;28;20446;-71
2022/05/29 04:55:41;;;;;;;0.00;0.00;;;10.10;99.90;;;;;;4953941;29;20027;-70
2022/05/29 04:58:08;;;;;;;0.43;0.43;;;10.00;99.90;;;;;;4953936;29;20028;-70
2022/05/29 05:00:34;;;;;;;0.08;0.08;;;10.00;99.90;;;;;;4951907;29;20395;-70
2022/05/29 05:03:01;;;;;;;0.00;0.00;;;9.90;99.90;;;;;;4953720;28;20035;-70
2022/05/29 05:05:28;;;;;;;0.00;0.00;;;9.90;99.90;;;;;;4952375;29;20023;-70
2022/05/29 05:07:53;;;;;;;0.17;0.17;;;9.90;99.90;;;;;;4953974;29;20023;-71
2022/05/29 05:10:19;;;;;;;0.47;0.47;;;9.90;99.90;;;;;;4952643;29;20520;-70
2022/05/29 05:12:46;;;;;;;0.00;0.00;;;9.90;99.90;;;;;;4953558;28;20039;-71
2022/05/29 05:15:15;;;;;;;0.10;0.10;;;10.00;99.90;;;;;;4942655;29;20129;-70
2022/05/29 05:17:42;;;;;;;0.73;0.70;;;10.00;99.90;;;;;;4934204;29;20032;-71
2022/05/29 05:20:09;;;;;;;0.10;0.10;;;10.00;99.90;;;;;;4932353;29;20031;-70
2022/05/29 05:22:35;;;;;;;0.25;0.20;;;10.10;99.90;;;;;;4932893;29;20043;-71
2022/05/29 05:25:01;;;;;;;0.85;0.75;;;10.10;99.90;;;;;;4934424;29;20036;-71
2022/05/29 05:27:28;;;;;;;7.05;1.05;;;10.10;99.90;;;;;;4932916;29;20400;-71
2022/05/29 05:29:53;;;;;;;0.00;0.00;;;10.00;99.90;;;;;;4933437;29;20031;-71
2022/05/29 05:32:19;;;;;;;0.30;0.30;;;9.80;99.90;;;;;;4933566;29;20043;-71
2022/05/29 05:34:45;;;;;;;0.15;0.15;;;9.90;99.90;;;;;;4933758;29;20039;-71
2022/05/29 05:37:12;;;;;;;3.42;1.10;;;9.80;99.90;;;;;;4933902;29;20106;-71
2022/05/29 05:39:39;;;;;;;0.00;0.00;;;9.80;99.90;;;;;;4932011;29;20031;-71
2022/05/29 05:42:06;;;;;;;0.00;0.00;;;9.80;99.90;;;;;;4933405;29;20082;-70
2022/05/29 05:44:32;;;;;;;0.08;0.08;;;9.80;99.90;;;;;;4934009;29;20118;-71
2022/05/29 05:46:57;;;;;;;0.52;0.52;;;9.90;99.90;;;;;;4932472;29;20583;-71
2022/05/29 05:49:24;;;;;;;0.03;0.03;;;9.80;99.90;;;;;;4932023;29;20023;-70
2022/05/29 05:51:51;;;;;;;1.02;0.95;;;9.90;99.90;;;;;;4933608;29;20035;-70
2022/05/29 05:54:19;;;;;;;0.10;0.10;;;9.80;99.90;;;;;;4932641;29;20032;-70
2022/05/29 05:56:50;;;;;;;0.17;0.17;;;10.00;99.90;;;;;;4932069;29;20032;-71
2022/05/29 05:59:18;;;;;;;0.00;0.00;;;9.90;99.90;;;;;;4931772;29;20496;-69
2022/05/29 06:01:44;;;;;;;1.25;1.08;;;9.90;99.90;;;;;;4931297;29;20073;-70
2022/05/29 06:04:10;;;;;;;4.68;2.63;;;9.80;99.90;;;;;;4933277;29;20031;-71
2022/05/29 06:06:36;;;;;;;0.32;0.32;;;9.90;99.90;;;;;;4932167;29;20027;-70
2022/05/29 06:09:02;;;;;;;0.00;0.00;;;9.70;99.90;;;;;;4932840;29;20062;-70
2022/05/29 06:11:29;;;;;;;0.60;0.47;;;9.70;99.90;;;;;;4932443;29;20086;-70
2022/05/29 06:13:56;;;;;;;0.10;0.10;;;9.70;99.90;;;;;;4932156;29;20027;-70
2022/05/29 06:16:22;;;;;;;0.00;0.00;;;9.90;99.90;;;;;;4932738;29;20106;-71
2022/05/29 06:18:48;;;;;;;0.57;0.57;;;9.80;99.90;;;;;;4930985;29;20031;-68
2022/05/29 06:21:14;;;;;;;0.15;0.15;;;10.00;99.90;;;;;;4933329;29;20030;-66
2022/05/29 06:23:41;;;;;;;0.00;0.00;;;10.20;99.90;;;;;;4932831;29;20075;-65
2022/05/29 06:26:11;;;;;;;0.00;0.00;;;10.40;99.90;;;;;;4930216;29;20028;-65
2022/05/29 06:28:43;;;;;;;0.08;0.08;;;10.50;99.90;;;;;;4926636;29;20074;-69
2022/05/29 06:31:11;;;;;;;0.00;0.00;;;10.50;99.90;;;;;;4928571;29;20029;-65
2022/05/29 06:33:37;;;;;;;0.00;0.00;;;10.70;99.90;;;;;;4913959;29;20039;-66
2022/05/29 06:36:15;;;;;;;0.20;0.20;;;10.70;99.90;;;;;;4912876;29;20047;-66
2022/05/29 06:38:42;;;;;;;0.20;0.20;;;10.70;99.90;;;;;;4911387;29;20043;-67
2022/05/29 06:41:11;;;;;;;0.30;0.30;;;10.80;99.90;;;;;;4910931;29;20036;-66
2022/05/29 06:43:37;;;;;;;0.00;0.00;;;10.80;99.90;;;;;;4911589;29;20047;-67
2022/05/29 06:46:05;;;;;;;0.20;0.20;;;10.90;99.90;;;;;;4915546;29;20060;-67
2022/05/29 06:48:33;;;;;;;0.10;0.10;;;11.00;99.90;;;;;;4915878;29;20448;-68
2022/05/29 06:51:07;;;;;;;2.35;0.40;;;11.10;99.90;;;;;;4901167;29;20043;-65
2022/05/29 06:53:33;;;;;;;2.10;1.38;;;11.10;99.90;;;;;;4917524;29;20059;-66
2022/05/29 06:55:59;;;;;;;1.08;0.85;;;11.40;99.90;;;;;;4917405;29;20088;-67
2022/05/29 06:58:25;;;;;;;0.10;0.10;;;11.50;99.90;;;;;;4935131;29;20091;-66
2022/05/29 07:09:05;;;;;;;0.08;0.08;;;12.00;99.90;;;;;;4934572;29;20360;-66
2022/05/29 07:11:35;;;;;;;0.03;0.03;;;12.20;99.90;;;;;;4935247;29;20036;-66
2022/05/29 07:14:05;;;;;;;0.00;0.00;;;12.40;99.90;;;;;;4934971;29;20040;-67
2022/05/29 07:16:32;;;;;;;0.77;0.63;;;12.60;99.90;;;;;;4935222;29;20097;-68
2022/05/29 07:18:59;;;;;;;0.00;0.00;;;12.70;99.90;;;;;;4935538;29;20118;-68
2022/05/29 07:21:26;;;;;;;0.22;0.22;;;12.20;99.90;;;;;;4934903;29;20033;-67
2022/05/29 07:23:52;;;;;;;0.00;0.00;;;12.40;99.90;;;;;;4934870;29;20481;-67
2022/05/29 07:26:21;;;;;;;0.00;0.00;;;12.60;99.90;;;;;;4936246;29;20035;-67
2022/05/29 07:28:47;;;;;;;0.10;0.10;;;12.60;99.90;;;;;;4935550;29;20127;-67
2022/05/29 07:31:13;;;;;;;0.20;0.20;;;12.80;99.90;;;;;;4934377;29;20155;-67
2022/05/29 07:33:38;;;;;;;0.40;0.30;;;12.80;99.90;;;;;;4934691;29;20040;-69
2022/05/29 07:36:10;;;;;;;0.10;0.10;;;12.70;99.90;;;;;;4935748;29;20118;-67
2022/05/29 07:38:37;;;;;;;0.00;0.00;;;12.60;99.90;;;;;;4933848;29;20377;-66
2022/05/29 07:43:18;;;;;;;0.00;0.00;;;12.90;99.90;;;;;;4935861;29;20032;-67
2022/05/29 07:43:52;;;;;;;0.00;0.00;;;13.00;99.90;;;;;;4934775;29;20039;-67
2022/05/29 07:46:18;;;;;;;0.00;0.00;;;13.30;99.90;;;;;;4933455;29;20046;-67
2022/05/29 07:48:44;;;;;;;0.10;0.10;;;13.10;99.90;;;;;;4934469;29;20023;-67
2022/05/29 07:51:10;;;;;;;0.03;0.03;;;13.20;99.90;;;;;;4935641;29;20039;-67
2022/05/29 07:53:37;;;;;;;2.47;0.43;;;13.60;99.90;;;;;;4935880;29;20082;-67
2022/05/29 07:56:05;;;;;;;0.10;0.10;;;13.70;99.90;;;;;;4934055;29;20032;-67
2022/05/29 07:58:30;;;;;;;0.00;0.00;;;13.50;99.90;;;;;;4917840;29;20034;-67
2022/05/29 08:00:56;;;;;;;0.98;0.55;;;13.90;99.90;;;;;;4935284;29;20023;-67
2022/05/29 08:03:23;;;;;;;0.45;0.45;;;13.80;99.90;;;;;;4935386;29;20032;-67
2022/05/29 08:05:52;;;;;;;24.75;1.00;;;14.10;99.90;;;;;;4935486;29;20086;-68
2022/05/29 08:08:21;;;;;;;0.00;0.00;;;14.40;99.90;;;;;;4933353;29;20177;-67
2022/05/29 08:10:46;;;;;;;0.00;0.00;;;14.60;99.90;;;;;;4934451;29;20119;-67
2022/05/29 08:13:12;;;;;;;0.00;0.00;;;14.30;99.90;;;;;;4935365;29;20613;-67
2022/05/29 08:15:38;;;;;;;6.78;1.55;;;14.40;99.90;;;;;;4935437;29;20038;-67
2022/05/29 08:18:05;;;;;;;0.00;0.00;;;14.50;99.90;;;;;;4933847;29;20032;-67
2022/05/29 08:20:30;;;;;;;0.00;0.00;;;14.60;99.90;;;;;;4933426;29;20087;-67
2022/05/29 08:22:57;;;;;;;0.13;0.13;;;14.50;99.90;;;;;;4933539;29;20439;-67
2022/05/29 08:30:54;;;;;;;0.52;0.50;;;14.10;99.90;;;;;;4933772;29;20031;-67
2022/05/29 08:33:24;;;;;;;0.00;0.00;;;14.10;99.90;;;;;;4935004;29;20758;-67
2022/05/29 08:36:06;;;;;;;2.78;2.13;;;14.10;99.90;;;;;;4934353;29;20248;-67
2022/05/29 08:38:43;;;;;;;0.00;0.00;;;14.20;99.90;;;;;;4933547;29;20099;-67
2022/05/29 08:41:50;;;;;;;0.00;0.00;;;14.20;99.80;;;;;;4934920;29;20119;-67
2022/05/29 08:44:49;;;;;;;1.48;0.85;;;14.20;99.30;;;;;;4919650;29;20086;-67
2022/05/29 08:47:26;;;;;;;0.22;0.22;;;14.40;99.00;;;;;;4934634;29;20039;-68
2022/05/29 08:49:51;;;;;;;0.00;0.00;;;14.60;98.70;;;;;;4932827;29;20365;-67
2022/05/29 08:53:08;;;;;;;0.00;0.00;;;14.50;99.00;;;;;;4932459;29;20035;-71
2022/05/29 08:55:39;;;;;;;0.00;0.00;;;14.70;98.80;;;;;;4909385;29;20118;-67
2022/05/29 08:58:29;;;;;;;0.00;0.00;;;14.90;98.00;;;;;;4933425;29;20047;-67
2022/05/29 09:01:04;;;;;;;0.00;0.00;;;14.90;97.70;;;;;;4931578;29;20044;-67
2022/05/29 09:03:44;;;;;;;0.00;0.00;;;14.90;98.30;;;;;;4930996;29;20413;-67
2022/05/29 09:06:36;;;;;;;3.67;1.42;;;14.60;97.60;;;;;;4929811;29;20472;-67
2022/05/29 09:09:36;;;;;;;0.00;0.00;;;14.80;97.30;;;;;;4930848;29;20550;-68
2022/05/29 09:12:41;;;;;;;2.97;1.55;;;15.00;96.40;;;;;;4931492;29;20138;-68
2022/05/29 09:15:26;;;;;;;0.00;0.00;;;15.20;95.80;;;;;;4930515;29;20567;-68
2022/05/29 09:18:00;;;;;;;1.27;1.17;;;15.30;96.10;;;;;;4933110;29;20492;-69
2022/05/29 09:20:37;;;;;;;0.00;0.00;;;15.40;95.50;;;;;;4932558;29;20040;-68
2022/05/29 09:23:07;;;;;;;0.00;0.00;;;15.20;95.50;;;;;;4932709;29;20123;-68
2022/05/29 09:25:42;;;;;;;0.00;0.00;;;14.90;95.60;;;;;;4917437;29;20039;-67
2022/05/29 09:28:16;;;;;;;0.00;0.00;;;15.10;95.60;;;;;;4932808;29;20028;-67
2022/05/29 09:30:42;;;;;;;0.00;0.00;;;14.90;95.80;;;;;;4932001;29;20517;-67
2022/05/29 09:33:21;;;;;;;0.55;0.55;;;15.00;95.20;;;;;;4932849;29;20042;-67
2022/05/29 09:35:58;;;;;;;0.95;0.95;;;14.90;96.00;;;;;;4933593;29;20047;-67
2022/05/29 09:39:00;;;;;;;0.00;0.00;;;15.40;93.80;;;;;;4933170;29;20044;-68
2022/05/29 09:41:45;;;;;;;0.00;0.00;;;15.40;93.40;;;;;;4933987;29;20035;-67
2022/05/29 09:44:21;;;;;;;0.00;0.00;;;15.50;93.60;;;;;;4933769;29;20046;-68
2022/05/29 09:46:53;;;;;;;0.00;0.00;;;15.60;95.10;;;;;;4932583;29;20076;-68
2022/05/29 09:49:42;;;;;;;0.00;0.00;;;16.00;92.60;;;;;;4931744;29;20028;-67
2022/05/29 09:52:29;;;;;;;0.00;0.00;;;16.40;91.20;;;;;;4932192;29;20028;-67
2022/05/29 09:55:04;;;;;;;0.08;0.08;;;16.30;90.40;;;;;;4933545;29;20516;-68
2022/05/29 09:57:49;;;;;;;0.10;0.10;;;16.50;90.80;;;;;;4932395;29;20508;-67
2022/05/29 10:00:37;;;;;;;0.00;0.00;;;16.80;90.90;;;;;;4931614;29;20046;-68
2022/05/29 10:03:27;;;;;;;0.03;0.03;;;17.20;89.20;;;;;;4932108;29;20040;-69
2022/05/29 10:06:33;;;;;;;0.00;0.00;;;17.20;87.40;;;;;;4919263;29;20027;-68
2022/05/29 10:09:22;;;;;;;0.80;0.40;;;16.60;86.00;;;;;;4926184;29;20124;-67
2022/05/29 10:11:59;;;;;;;0.00;0.00;;;16.10;86.60;;;;;;4917319;29;20027;-68
2022/05/29 10:14:38;;;;;;;4.18;0.80;;;16.30;87.30;;;;;;4932131;29;20039;-67
2022/05/29 10:17:27;;;;;;;0.00;0.00;;;16.40;88.00;;;;;;4933574;29;20031;-67
2022/05/29 10:19:53;;;;;;;0.00;0.00;;;16.40;87.30;;;;;;4931481;29;20034;-68
2022/05/29 10:22:36;;;;;;;0.00;0.00;;;16.60;86.40;;;;;;4931603;29;20032;-67
2022/05/29 10:25:19;;;;;;;0.00;0.00;;;17.00;83.90;;;;;;4931939;29;20110;-67
2022/05/29 10:27:49;;;;;;;0.00;0.00;;;17.10;83.90;;;;;;4932337;29;20024;-67
2022/05/29 10:30:30;;;;;;;0.00;0.00;;;17.30;83.60;;;;;;4931496;29;20039;-67
2022/05/29 10:33:07;;;;;;;0.00;0.00;;;16.90;80.10;;;;;;4932828;29;20036;-67
2022/05/29 10:35:41;;;;;;;0.20;0.20;;;17.10;80.40;;;;;;4931780;29;20063;-67
2022/05/29 10:38:19;;;;;;;0.00;0.00;;;17.20;78.50;;;;;;4931696;29;20042;-67
2022/05/29 10:40:51;;;;;;;0.00;0.00;;;17.10;79.80;;;;;;4932270;29;20114;-67
2022/05/29 10:43:48;;;;;;;0.00;0.00;;;17.60;79.90;;;;;;4932677;29;20040;-67
2022/05/29 10:46:15;;;;;;;0.00;0.00;;;17.80;78.40;;;;;;4921136;29;20039;-67
2022/05/29 10:49:13;;;;;;;0.05;0.05;;;18.10;76.20;;;;;;4932135;29;20027;-67
2022/05/29 10:51:52;;;;;;;0.00;0.00;;;18.10;76.90;;;;;;4932862;29;20032;-67
2022/05/29 10:54:49;;;;;;;0.00;0.00;;;17.90;76.60;;;;;;4931643;29;20091;-67
2022/05/29 10:57:27;;;;;;;1.00;0.40;;;18.10;75.50;;;;;;4932900;29;20028;-67
2022/05/29 11:00:27;;;;;;;8.88;0.85;;;18.10;75.80;;;;;;4932360;29;20044;-67
2022/05/29 11:03:17;;;;;;;0.00;0.00;;;18.00;73.70;;;;;;4932922;29;20399;-68
2022/05/29 11:06:27;;;;;;;1.00;0.97;;;18.20;71.30;;;;;;4931906;29;20106;-67
2022/05/29 11:09:36;;;;;;;0.00;0.00;;;18.40;71.90;;;;;;4932005;29;20054;-67
2022/05/29 11:12:40;;;;;;;0.00;0.00;;;18.60;69.20;;;;;;4932519;29;20036;-67
2022/05/29 11:15:40;;;;;;;0.00;0.00;;;18.30;70.00;;;;;;4931914;29;20388;-66
2022/05/29 11:18:47;;;;;;;0.00;0.00;;;17.70;67.60;;;;;;4932903;29;20350;-67
2022/05/29 11:21:55;;;;;;;0.00;0.00;;;17.40;70.30;;;;;;4931653;29;20024;-67
2022/05/29 11:24:51;;;;;;;0.00;0.00;;;17.30;70.90;;;;;;4932609;29;20043;-67
2022/05/29 11:28:14;;;;;;;0.00;0.00;;;17.90;71.20;;;;;;4932514;29;20076;-68
2022/05/29 11:31:17;;;;;;;0.20;0.17;;;18.30;71.60;;;;;;4933878;29;20036;-68
2022/05/29 11:34:07;;;;;;;0.57;0.22;;;18.10;69.50;;;;;;4935056;29;20028;-68
2022/05/29 11:37:18;;;;;;;0.93;0.73;;;17.60;72.80;;;;;;4935973;29;20028;-69
2022/05/29 11:40:26;;;;;;;0.17;0.17;;;16.90;74.90;;;;;;4935221;29;20576;-69
2022/05/29 11:43:09;;;;;;;0.00;0.00;;;17.00;71.60;;;;;;4934503;29;20710;-68
2022/05/29 11:51:55;;;;;;;0.00;0.00;;;17.10;68.80;;;;;;4934874;29;20038;-68
2022/05/29 11:55:04;;;;;;;0.00;0.00;;;17.10;66.70;;;;;;4934511;29;20559;-68
2022/05/29 11:57:52;;;;;;;0.10;0.10;;;17.20;66.90;;;;;;4935763;29;20027;-68
2022/05/29 12:00:21;;;;;;;0.52;0.10;;;17.80;68.30;;;;;;4933985;29;20091;-68
2022/05/29 12:03:28;;;;;;;0.00;0.00;;;18.60;63.00;;;;;;4935594;29;20489;-68
2022/05/29 12:06:38;;;;;;;0.00;0.00;;;18.60;61.80;;;;;;4930057;29;20488;-68
2022/05/29 12:09:46;;;;;;;1.40;0.65;;;19.00;62.90;;;;;;4914602;29;20055;-67
2022/05/29 12:12:20;;;;;;;0.00;0.00;;;18.90;62.70;;;;;;4916350;29;20083;-68
2022/05/29 12:15:00;;;;;;;0.00;0.00;;;19.80;66.00;;;;;;4915527;29;20032;-67
2022/05/29 12:17:55;;;;;;;0.00;0.00;;;19.60;66.30;;;;;;4915484;29;20028;-68
2022/05/29 12:20:49;;;;;;;0.15;0.10;;;20.00;63.20;;;;;;4914454;29;20028;-68
2022/05/29 12:23:24;;;;;;;0.00;0.00;;;19.90;63.40;;;;;;4914736;29;20064;-68
2022/05/29 12:26:00;;;;;;;0.00;0.00;;;19.80;62.30;;;;;;4916499;29;20115;-68
2022/05/29 12:28:48;;;;;;;0.00;0.00;;;19.90;63.80;;;;;;4916468;29;20071;-68
2022/05/29 12:31:45;;;;;;;0.00;0.00;;;19.70;65.70;;;;;;4916294;29;20036;-68
2022/05/29 12:34:21;;;;;;;0.00;0.00;;;20.00;63.60;;;;;;4899197;29;20040;-68
2022/05/29 12:37:27;;;;;;;0.00;0.00;;;19.70;63.00;;;;;;4916609;29;20035;-68
2022/05/29 12:40:26;;;;;;;0.13;0.08;;;19.40;62.20;;;;;;4933333;29;20158;-68
2022/05/29 12:43:33;;;;;;;0.03;0.03;;;18.80;63.20;;;;;;4933852;29;20087;-68
2022/05/29 12:46:41;;;;;;;0.00;0.00;;;18.40;63.90;;;;;;4935229;29;20098;-68
2022/05/29 12:49:32;;;;;;;0.00;0.00;;;18.50;63.90;;;;;;4926280;29;20058;-68
2022/05/29 12:52:20;;;;;;;0.00;0.00;;;18.30;63.70;;;;;;4933630;29;20031;-68
2022/05/29 12:55:18;;;;;;;0.03;0.03;;;18.20;63.60;;;;;;4933723;29;20406;-67
2022/05/29 12:57:53;;;;;;;0.17;0.10;;;18.20;63.00;;;;;;4934813;29;20032;-68
2022/05/29 13:00:26;;;;;;;0.73;0.30;;;18.50;62.20;;;;;;4933698;29;20036;-68
2022/05/29 13:03:22;;;;;;;0.00;0.00;;;19.10;62.00;;;;;;4934502;29;20031;-68
2022/05/29 13:06:26;;;;;;;0.00;0.00;;;18.50;60.10;;;;;;4934753;29;20036;-69
2022/05/29 13:09:54;;;;;;;0.00;0.00;;;18.50;61.40;;;;;;4933383;29;20488;-68
2022/05/29 13:12:40;;;;;;;0.08;0.00;;;19.00;60.10;;;;;;4932871;29;20036;-68
2022/05/29 13:15:12;;;;;;;0.00;0.00;;;20.10;62.20;;;;;;4934338;29;20024;-69
2022/05/29 13:17:39;;;;;;;0.00;0.00;;;20.50;59.20;;;;;;4933106;29;20118;-69
2022/05/29 13:20:17;;;;;;;0.00;0.00;;;20.30;59.60;;;;;;4932301;29;20118;-69
2022/05/29 13:23:06;;;;;;;0.00;0.00;;;20.60;60.30;;;;;;4933744;29;20071;-69
2022/05/29 13:25:42;;;;;;;0.00;0.00;;;21.60;59.50;;;;;;4932613;29;20024;-68
2022/05/29 13:28:41;;;;;;;0.45;0.45;;;20.90;58.50;;;;;;4933997;29;20028;-68
2022/05/29 13:31:11;;;;;;;0.10;0.10;;;20.10;58.80;;;;;;4934074;29;20083;-68
2022/05/29 13:33:43;;;;;;;3.45;0.40;;;20.20;60.00;;;;;;4933780;29;20035;-68
2022/05/29 13:36:11;;;;;;;0.00;0.00;;;19.60;60.40;;;;;;4932998;29;20042;-68
2022/05/29 13:38:46;;;;;;;0.00;0.00;;;19.60;60.80;;;;;;4932931;29;20059;-68
2022/05/29 13:42:04;;;;;;;0.00;0.00;;;20.00;58.90;;;;;;4934078;29;20031;-69
2022/05/29 13:44:36;;;;;;;0.30;0.10;;;19.70;58.30;;;;;;4891657;29;20086;-68
2022/05/29 13:47:23;;;;;;;0.22;0.20;;;19.20;59.00;;;;;;4916504;29;20602;-69
2022/05/29 13:50:32;;;;;;;0.13;0.13;;;19.30;59.70;;;;;;4933528;29;20047;-68
2022/05/29 13:53:04;;;;;;;0.00;0.00;;;19.90;57.70;;;;;;4932264;29;20090;-68
2022/05/29 13:55:32;;;;;;;0.00;0.00;;;20.30;57.20;;;;;;4932239;29;20032;-68
2022/05/29 14:04:43;;;;;;;0.00;0.00;;;21.60;53.50;;;;;;4933807;29;20048;-68
2022/05/29 14:07:18;;;;;;;0.10;0.05;;;22.90;51.90;;;;;;4924995;29;20040;-68
2022/05/29 14:10:21;;;;;;;0.00;0.00;;;22.70;48.90;;;;;;4932877;29;20039;-68
2022/05/29 14:13:29;;;;;;;0.00;0.00;;;21.50;50.90;;;;;;4932092;29;20500;-68
2022/05/29 14:16:18;;;;;;;0.22;0.20;;;22.30;50.70;;;;;;4917378;29;20127;-68
2022/05/29 14:19:19;;;;;;;0.45;0.40;;;21.80;51.00;;;;;;4931461;29;20191;-68